Time;durP1;ratioP1;P1;durP2;ratioP2;P2;SDS_P1;SDS_P2;PMS_P1;PMS_P2;Temp;Humidity;BMP_temperature;BMP_pressure;BME280_temperature;BME280_humidity;BME280_pressure;Samples;Min_cycle;Max_cycle;Signal;HPM_P1;HPM_P2
2023/01/09 00:00:29;;;;;;;3.30;3.00;;;17.10;68.50;;;;;;5073807;28;20497;-11
2023/01/09 00:02:54;;;;;;;5.60;2.90;;;17.00;68.40;;;;;;5075325;28;20056;-10
2023/01/09 00:05:20;;;;;;;4.70;2.65;;;17.00;68.60;;;;;;5076297;28;20044;-11
2023/01/09 00:07:46;;;;;;;3.00;2.80;;;17.00;68.50;;;;;;5076388;28;20055;-10
2023/01/09 00:10:12;;;;;;;2.97;2.72;;;17.00;68.70;;;;;;5074761;28;20103;-10
2023/01/09 00:12:37;;;;;;;3.38;2.72;;;17.00;68.50;;;;;;5073469;28;20048;-10
2023/01/09 00:15:03;;;;;;;3.05;2.58;;;17.10;68.40;;;;;;5074417;28;20081;-10
2023/01/09 00:17:29;;;;;;;3.33;3.03;;;17.00;68.40;;;;;;5077182;28;20040;-12
2023/01/09 00:19:54;;;;;;;2.90;2.70;;;17.00;68.60;;;;;;5078415;28;20472;-10
2023/01/09 00:22:20;;;;;;;2.53;2.33;;;17.10;68.40;;;;;;5071838;28;20051;-17
2023/01/09 00:24:46;;;;;;;2.92;2.72;;;17.00;68.40;;;;;;5073242;28;20045;-10
2023/01/09 00:27:13;;;;;;;2.60;2.40;;;17.10;68.20;;;;;;5078809;28;20040;-14
2023/01/09 00:29:40;;;;;;;2.90;2.70;;;17.00;68.40;;;;;;5082233;28;20504;-16
2023/01/09 00:32:08;;;;;;;2.72;2.40;;;16.90;68.70;;;;;;5073150;28;20044;-12
2023/01/09 00:34:36;;;;;;;2.47;2.20;;;17.00;68.50;;;;;;5079470;28;20630;-11
2023/01/09 00:37:02;;;;;;;2.85;2.55;;;17.00;68.60;;;;;;5078415;28;20043;-16
2023/01/09 00:39:28;;;;;;;2.60;2.40;;;17.00;68.60;;;;;;5078252;28;20474;-10
2023/01/09 00:41:53;;;;;;;2.83;2.60;;;17.00;68.50;;;;;;5077365;28;20072;-27
2023/01/09 00:44:27;;;;;;;2.25;2.05;;;17.00;68.50;;;;;;5074138;28;20059;-21
2023/01/09 00:46:57;;;;;;;;;;;17.00;68.40;;;;;;5055903;28;20040;-11
2023/01/09 00:49:22;;;;;;;2.28;2.05;;;17.00;68.50;;;;;;5077919;28;19969;-10
2023/01/09 00:51:48;;;;;;;2.45;2.20;;;17.00;69.40;;;;;;5067983;28;20048;-10
2023/01/09 00:54:15;;;;;;;2.22;2.10;;;17.00;68.60;;;;;;5070642;28;20063;-10
2023/01/09 00:56:40;;;;;;;2.30;2.10;;;17.00;69.10;;;;;;5086793;28;20119;-11
2023/01/09 00:59:06;;;;;;;2.30;2.10;;;17.00;68.30;;;;;;5074558;28;20757;-21
2023/01/09 01:01:32;;;;;;;2.20;2.00;;;17.00;68.30;;;;;;5071463;28;20049;-18
2023/01/09 01:03:57;;;;;;;2.40;2.20;;;17.00;68.30;;;;;;5076559;28;20071;-23
2023/01/09 01:09:07;;;;;;;2.20;1.90;;;17.00;68.30;;;;;;5075762;28;20114;-14
2023/01/09 01:11:33;;;;;;;2.40;2.17;;;17.00;68.20;;;;;;5074852;28;20048;-11
2023/01/09 01:13:59;;;;;;;1.98;1.88;;;17.00;68.30;;;;;;5076728;28;20079;-30
2023/01/09 01:16:25;;;;;;;2.10;1.85;;;17.00;68.20;;;;;;5076272;28;20560;-18
2023/01/09 01:18:50;;;;;;;2.47;2.05;;;16.90;68.30;;;;;;5078361;28;20134;-22
2023/01/09 01:21:16;;;;;;;2.03;1.70;;;17.00;68.20;;;;;;5078715;28;20060;-28
2023/01/09 01:23:42;;;;;;;2.25;2.00;;;17.00;68.40;;;;;;5079176;28;20039;-24
2023/01/09 01:26:10;;;;;;;1.70;1.60;;;16.90;68.40;;;;;;5077964;28;20087;-17
2023/01/09 01:28:35;;;;;;;2.22;1.98;;;16.90;68.50;;;;;;5076576;28;20034;-15
2023/01/09 01:31:01;;;;;;;1.80;1.70;;;17.00;69.20;;;;;;5074701;28;20524;-28
2023/01/09 01:33:27;;;;;;;2.13;1.98;;;16.90;68.40;;;;;;5079180;28;20036;-20
2023/01/09 01:36:03;;;;;;;1.90;1.80;;;16.90;68.40;;;;;;5078536;28;20464;-22
2023/01/09 01:38:29;;;;;;;2.03;1.92;;;16.90;68.30;;;;;;5072506;28;20053;-15
2023/01/09 01:40:54;;;;;;;1.55;1.45;;;16.90;68.30;;;;;;5080068;28;20049;-17
2023/01/09 01:43:20;;;;;;;1.45;1.35;;;16.90;68.20;;;;;;5075575;28;20131;-30
2023/01/09 01:45:45;;;;;;;1.60;1.50;;;16.90;68.20;;;;;;5054303;28;20136;-19
2023/01/09 01:48:21;;;;;;;1.45;1.35;;;16.90;68.30;;;;;;5051056;28;20422;-23
2023/01/09 01:50:57;;;;;;;2.38;1.70;;;16.90;68.30;;;;;;5039670;28;20090;-12
2023/01/09 01:53:32;;;;;;;1.77;1.65;;;16.90;68.40;;;;;;5034017;28;20047;-20
2023/01/09 01:56:13;;;;;;;1.20;1.10;;;16.90;68.40;;;;;;5048083;28;20108;-18
2023/01/09 01:58:46;;;;;;;1.88;1.77;;;16.90;68.20;;;;;;5048297;28;20505;-19
2023/01/09 02:01:12;;;;;;;1.58;1.48;;;16.90;68.20;;;;;;5035278;28;20053;-11
2023/01/09 02:03:37;;;;;;;1.88;1.42;;;17.00;68.30;;;;;;5049938;28;20098;-13
2023/01/09 02:06:03;;;;;;;2.35;1.67;;;17.00;68.00;;;;;;5053611;28;20394;-16
2023/01/09 02:08:30;;;;;;;1.60;1.42;;;16.90;68.10;;;;;;5048055;28;20047;-28
2023/01/09 02:10:55;;;;;;;2.05;1.60;;;16.90;68.20;;;;;;5034021;28;20116;-12
2023/01/09 02:13:21;;;;;;;1.00;1.00;;;16.90;68.20;;;;;;5049587;28;20116;-17
2023/01/09 02:16:01;;;;;;;1.38;1.27;;;16.90;68.30;;;;;;5034955;28;20041;-18
2023/01/09 02:18:32;;;;;;;1.30;1.20;;;16.90;68.10;;;;;;5047766;28;20033;-18
2023/01/09 02:20:59;;;;;;;1.35;1.23;;;16.90;68.10;;;;;;5046802;28;20047;-18
2023/01/09 02:23:41;;;;;;;1.30;1.20;;;16.90;68.00;;;;;;5047873;28;20041;-12
2023/01/09 02:26:19;;;;;;;1.08;1.02;;;17.00;67.90;;;;;;5059445;28;20060;-11
2023/01/09 02:29:27;;;;;;;1.50;1.40;;;17.00;67.80;;;;;;5051421;28;20044;-10
2023/01/09 02:32:10;;;;;;;1.17;1.17;;;16.90;68.00;;;;;;5028625;28;20088;-15
2023/01/09 02:34:45;;;;;;;0.77;0.77;;;16.90;68.00;;;;;;5047642;28;20510;-11
2023/01/09 02:37:21;;;;;;;1.33;1.23;;;16.90;68.10;;;;;;5034710;28;20192;-12
2023/01/09 02:40:03;;;;;;;2.45;1.33;;;17.00;68.00;;;;;;5033700;28;20144;-11
2023/01/09 02:42:28;;;;;;;1.27;1.17;;;17.00;67.90;;;;;;5044548;28;20116;-12
2023/01/09 02:44:54;;;;;;;1.38;1.27;;;16.90;67.90;;;;;;5047263;28;20576;-11
2023/01/09 02:47:20;;;;;;;1.35;1.25;;;16.90;68.00;;;;;;5077006;28;20461;-18
2023/01/09 02:50:05;;;;;;;1.15;1.05;;;16.90;68.90;;;;;;5076786;28;20131;-26
2023/01/09 02:52:51;;;;;;;0.98;0.90;;;16.90;68.10;;;;;;5057827;28;20028;-25
2023/01/09 02:55:22;;;;;;;1.02;0.93;;;16.90;67.90;;;;;;5073790;28;20055;-25
2023/01/09 02:57:56;;;;;;;1.30;1.20;;;16.90;68.00;;;;;;5078089;28;20513;-22
2023/01/09 03:00:46;;;;;;;1.23;1.10;;;16.90;67.90;;;;;;5076950;28;20055;-38
2023/01/09 03:03:39;;;;;;;1.08;1.00;;;16.90;67.90;;;;;;5073405;28;20433;-12
2023/01/09 03:06:18;;;;;;;1.30;1.20;;;16.90;67.90;;;;;;5061273;28;20048;-28
2023/01/09 03:08:46;;;;;;;0.90;0.90;;;16.90;67.80;;;;;;5059081;28;20496;-18
2023/01/09 03:11:12;;;;;;;0.93;0.93;;;16.90;68.00;;;;;;5055874;28;20401;-17
2023/01/09 03:13:52;;;;;;;1.02;0.90;;;16.90;68.00;;;;;;5073500;28;20044;-12
2023/01/09 03:16:24;;;;;;;1.95;1.02;;;16.90;68.00;;;;;;5057623;28;20142;-11
2023/01/09 03:18:50;;;;;;;0.82;0.82;;;16.90;67.70;;;;;;5057058;28;20123;-17
2023/01/09 03:21:15;;;;;;;1.08;0.98;;;16.90;67.70;;;;;;5058633;28;20116;-20
2023/01/09 03:23:46;;;;;;;1.13;1.00;;;16.90;67.70;;;;;;5052786;28;20520;-26
2023/01/09 03:26:11;;;;;;;0.80;0.80;;;16.90;67.70;;;;;;5054934;28;20102;-16
2023/01/09 03:28:37;;;;;;;1.23;1.13;;;16.90;68.00;;;;;;5074045;28;20465;-15
2023/01/09 03:31:02;;;;;;;1.20;1.05;;;16.90;67.80;;;;;;5073837;28;20024;-25
2023/01/09 03:33:28;;;;;;;1.10;1.00;;;16.90;67.70;;;;;;5077481;28;20497;-11
2023/01/09 03:35:54;;;;;;;0.85;0.85;;;16.90;67.70;;;;;;5071217;28;20040;-12
2023/01/09 03:38:19;;;;;;;0.90;0.90;;;16.90;67.70;;;;;;5074499;28;20056;-14
2023/01/09 03:40:45;;;;;;;0.68;0.68;;;16.90;67.60;;;;;;5077741;28;20036;-20
2023/01/09 03:43:10;;;;;;;0.73;0.73;;;17.00;67.60;;;;;;5071909;28;20033;-14
2023/01/09 03:45:36;;;;;;;1.25;1.15;;;16.90;67.60;;;;;;5054130;28;20454;-14
2023/01/09 03:48:02;;;;;;;0.85;0.85;;;16.90;67.40;;;;;;5044855;28;20041;-13
2023/01/09 03:50:27;;;;;;;0.70;0.70;;;16.90;67.50;;;;;;5047466;28;20037;-12
2023/01/09 03:52:53;;;;;;;1.17;1.08;;;16.90;67.70;;;;;;5046442;28;20041;-24
2023/01/09 03:55:18;;;;;;;0.60;0.60;;;16.90;67.60;;;;;;5045574;28;20141;-19
2023/01/09 03:57:44;;;;;;;0.95;0.80;;;16.90;67.50;;;;;;5046749;28;20569;-20
2023/01/09 04:00:10;;;;;;;0.63;0.63;;;16.90;67.60;;;;;;5045514;28;20063;-15
2023/01/09 04:02:35;;;;;;;0.70;0.70;;;16.90;67.60;;;;;;5046872;28;20041;-21
2023/01/09 04:05:01;;;;;;;0.98;0.75;;;17.00;67.40;;;;;;5045255;28;20429;-13
2023/01/09 04:07:27;;;;;;;0.60;0.60;;;17.00;67.30;;;;;;5046557;28;20045;-14
2023/01/09 04:09:52;;;;;;;1.65;0.60;;;17.00;67.30;;;;;;5048226;28;20554;-32
2023/01/09 04:12:18;;;;;;;1.73;0.70;;;16.90;67.40;;;;;;5046513;28;20083;-28
2023/01/09 04:14:43;;;;;;;0.88;0.80;;;16.90;67.50;;;;;;5050170;28;20041;-12
2023/01/09 04:17:09;;;;;;;0.80;0.80;;;17.00;67.50;;;;;;5044679;28;20060;-11
2023/01/09 04:19:34;;;;;;;0.88;0.80;;;16.90;67.40;;;;;;5046128;28;20464;-11
2023/01/09 04:22:00;;;;;;;0.80;0.80;;;16.90;67.40;;;;;;5045067;28;20049;-11
2023/01/09 04:24:27;;;;;;;0.63;0.63;;;16.90;67.50;;;;;;5046539;28;20196;-17
2023/01/09 04:26:52;;;;;;;1.00;0.90;;;16.90;67.50;;;;;;5045043;28;20072;-19
2023/01/09 04:29:18;;;;;;;0.50;0.50;;;16.90;67.40;;;;;;5044674;28;20479;-16
2023/01/09 04:31:44;;;;;;;0.50;0.50;;;16.90;67.40;;;;;;5046074;28;20132;-15
2023/01/09 04:34:09;;;;;;;0.70;0.70;;;16.90;68.20;;;;;;5047045;28;20045;-20
2023/01/09 04:36:35;;;;;;;0.88;0.82;;;16.90;67.50;;;;;;5046501;28;20065;-29
2023/01/09 04:39:01;;;;;;;0.60;0.60;;;16.90;68.20;;;;;;5048375;28;20039;-26
2023/01/09 04:44:10;;;;;;;0.70;0.60;;;16.90;67.30;;;;;;5050624;28;20076;-34
2023/01/09 04:46:36;;;;;;;0.60;0.50;;;16.90;67.30;;;;;;5053863;28;20471;-11
2023/01/09 04:49:01;;;;;;;1.10;0.73;;;16.90;67.60;;;;;;5057664;28;20094;-21
2023/01/09 04:51:27;;;;;;;0.65;0.65;;;16.90;67.40;;;;;;5059437;28;20046;-26
2023/01/09 04:53:53;;;;;;;0.50;0.50;;;16.90;67.40;;;;;;5057411;28;20040;-23
2023/01/09 04:56:18;;;;;;;0.47;0.47;;;16.90;67.50;;;;;;5057527;28;20064;-23
2023/01/09 04:58:44;;;;;;;0.60;0.60;;;16.90;67.40;;;;;;5053987;28;20045;-30
2023/01/09 05:01:09;;;;;;;0.90;0.80;;;16.90;67.40;;;;;;5055983;28;20071;-11
2023/01/09 05:03:35;;;;;;;0.68;0.68;;;16.80;67.40;;;;;;5055726;28;20047;-36
2023/01/09 05:06:00;;;;;;;0.60;0.60;;;16.90;67.40;;;;;;5060796;28;20505;-17
2023/01/09 05:08:26;;;;;;;0.77;0.60;;;16.80;67.40;;;;;;5062075;28;20086;-12
2023/01/09 05:10:51;;;;;;;0.88;0.88;;;16.80;67.40;;;;;;5059834;28;20098;-44
2023/01/09 05:13:17;;;;;;;0.65;0.52;;;16.80;68.20;;;;;;5060973;28;20055;-26
2023/01/09 05:15:42;;;;;;;0.40;0.40;;;16.90;67.30;;;;;;5061570;28;20028;-25
2023/01/09 05:18:08;;;;;;;0.60;0.60;;;16.90;67.30;;;;;;5059446;28;20053;-30
2023/01/09 05:20:34;;;;;;;0.82;0.50;;;16.80;67.50;;;;;;5061952;28;20040;-32
2023/01/09 05:22:59;;;;;;;0.45;0.43;;;16.80;67.50;;;;;;5064165;28;20461;-32
2023/01/09 05:25:25;;;;;;;0.40;0.40;;;16.90;67.40;;;;;;5042412;28;20079;-18
2023/01/09 05:27:50;;;;;;;0.52;0.52;;;16.90;67.30;;;;;;5063332;28;20449;-24
2023/01/09 05:30:16;;;;;;;0.57;0.57;;;16.80;67.50;;;;;;5060580;28;20048;-18
2023/01/09 05:32:42;;;;;;;0.70;0.55;;;16.80;67.40;;;;;;5062887;28;20446;-32
2023/01/09 05:35:08;;;;;;;0.50;0.50;;;16.90;67.30;;;;;;5061672;28;20123;-33
2023/01/09 05:37:33;;;;;;;0.50;0.50;;;16.90;67.30;;;;;;5057086;28;20497;-18
2023/01/09 05:39:59;;;;;;;0.50;0.50;;;16.80;68.10;;;;;;5052875;28;20683;-24
2023/01/09 05:42:24;;;;;;;0.47;0.40;;;16.80;67.40;;;;;;5036884;28;20056;-43
2023/01/09 05:44:50;;;;;;;0.43;0.40;;;16.80;67.40;;;;;;5057837;28;20164;-19
2023/01/09 05:47:15;;;;;;;0.30;0.30;;;16.80;67.40;;;;;;5056559;28;20045;-22
2023/01/09 05:49:41;;;;;;;0.77;0.50;;;16.80;67.50;;;;;;5060677;28;20519;-33
2023/01/09 05:52:07;;;;;;;0.50;0.50;;;16.80;67.50;;;;;;5056754;28;20597;-30
2023/01/09 05:54:33;;;;;;;0.47;0.47;;;16.70;67.50;;;;;;5059417;28;20507;-18
2023/01/09 05:56:58;;;;;;;0.55;0.55;;;16.70;67.50;;;;;;5053643;28;20180;-23
2023/01/09 05:59:24;;;;;;;1.70;0.68;;;16.80;67.50;;;;;;5058696;28;20095;-17
2023/01/09 06:01:49;;;;;;;0.35;0.35;;;16.80;67.50;;;;;;5049957;28;20094;-26
2023/01/09 06:04:15;;;;;;;0.60;0.60;;;16.80;67.50;;;;;;5048598;28;20041;-15
2023/01/09 06:06:40;;;;;;;0.52;0.52;;;16.70;67.50;;;;;;5050380;28;20048;-32
2023/01/09 06:09:06;;;;;;;0.82;0.50;;;16.80;67.80;;;;;;5054592;28;20413;-16
2023/01/09 06:11:37;;;;;;;0.82;0.57;;;16.70;67.90;;;;;;5055879;28;20552;-25
2023/01/09 06:14:05;;;;;;;0.85;0.85;;;16.80;68.50;;;;;;5056699;28;20055;-31
2023/01/09 06:16:31;;;;;;;0.88;0.68;;;16.70;69.00;;;;;;5053483;28;20051;-16
2023/01/09 06:18:57;;;;;;;1.60;0.90;;;16.70;69.70;;;;;;5051327;28;20040;-42
2023/01/09 06:21:22;;;;;;;2.50;0.90;;;16.70;70.10;;;;;;5048562;28;20045;-17
2023/01/09 06:23:48;;;;;;;0.60;0.60;;;16.70;70.30;;;;;;5049059;28;20472;-13
2023/01/09 06:26:13;;;;;;;2.30;0.50;;;16.70;70.30;;;;;;5045939;28;20063;-24
2023/01/09 06:28:39;;;;;;;1.85;1.10;;;16.70;70.50;;;;;;5048327;28;20128;-24
2023/01/09 06:31:05;;;;;;;3.25;0.98;;;16.80;70.10;;;;;;5047201;28;20056;-15
2023/01/09 06:33:31;;;;;;;2.33;0.80;;;16.60;70.30;;;;;;5055392;28;20080;-34
2023/01/09 06:35:56;;;;;;;4.03;0.95;;;16.70;70.60;;;;;;5054647;28;20188;-12
2023/01/09 06:38:22;;;;;;;4.00;1.05;;;16.70;70.40;;;;;;5057357;28;20052;-21
2023/01/09 06:40:49;;;;;;;4.05;1.35;;;16.60;70.60;;;;;;5050216;28;20049;-22
2023/01/09 06:43:14;;;;;;;2.22;1.10;;;16.80;70.20;;;;;;5051483;28;20048;-23
2023/01/09 06:45:42;;;;;;;3.03;1.05;;;16.70;71.30;;;;;;5072612;28;20043;-18
2023/01/09 06:48:08;;;;;;;2.55;1.20;;;16.60;71.00;;;;;;5050116;28;20123;-16
2023/01/09 06:50:34;;;;;;;5.00;1.30;;;16.60;70.90;;;;;;5067935;28;20121;-42
2023/01/09 06:52:59;;;;;;;2.22;1.40;;;16.60;70.60;;;;;;5068649;28;20106;-19
2023/01/09 06:55:25;;;;;;;4.80;1.20;;;16.60;70.70;;;;;;5067228;28;20071;-19
2023/01/09 06:57:51;;;;;;;3.03;0.88;;;16.70;70.40;;;;;;5067388;28;20051;-14
2023/01/09 07:00:17;;;;;;;3.08;1.00;;;16.60;70.40;;;;;;5070199;28;20039;-22
2023/01/09 07:02:42;;;;;;;3.53;1.05;;;16.60;70.60;;;;;;5074438;28;20405;-11
2023/01/09 07:05:10;;;;;;;1.15;1.05;;;16.50;70.50;;;;;;5072481;28;20050;-11
2023/01/09 07:07:37;;;;;;;5.55;1.00;;;16.50;70.50;;;;;;5070282;28;20033;-11
2023/01/09 07:10:02;;;;;;;1.20;0.95;;;16.50;70.50;;;;;;5066701;28;20054;-10
2023/01/09 07:12:28;;;;;;;3.00;1.30;;;16.50;70.40;;;;;;5073420;28;20040;-10
2023/01/09 07:14:54;;;;;;;2.35;1.02;;;16.50;70.50;;;;;;5071563;28;20049;-11
2023/01/09 07:17:19;;;;;;;2.40;0.90;;;16.50;70.30;;;;;;5069900;28;20037;-11
2023/01/09 07:19:45;;;;;;;1.30;1.02;;;16.50;70.20;;;;;;5064068;28;20870;-13
2023/01/09 07:22:10;;;;;;;4.30;1.27;;;16.60;70.30;;;;;;5067228;28;20036;-12
2023/01/09 07:24:36;;;;;;;3.63;0.73;;;16.60;69.90;;;;;;5066577;28;20094;-11
2023/01/09 07:27:01;;;;;;;2.22;1.08;;;16.70;69.70;;;;;;5074913;28;20536;-11
2023/01/09 07:29:27;;;;;;;1.63;1.17;;;16.70;69.80;;;;;;5066740;28;20032;-11
2023/01/09 07:31:52;;;;;;;1.92;1.17;;;16.70;69.70;;;;;;5067538;28;20044;-16
2023/01/09 07:34:18;;;;;;;1.80;0.90;;;16.70;69.40;;;;;;5073670;28;20507;-11
2023/01/09 07:36:47;;;;;;;0.80;0.80;;;16.70;69.80;;;;;;5070066;28;20041;-11
2023/01/09 07:39:13;;;;;;;0.98;0.98;;;16.60;70.40;;;;;;5070248;28;20032;-11
2023/01/09 07:41:38;;;;;;;2.20;1.23;;;16.70;69.70;;;;;;5072040;28;20047;-11
2023/01/09 07:44:05;;;;;;;0.63;0.57;;;16.70;69.50;;;;;;5070044;28;20048;-11
2023/01/09 07:46:31;;;;;;;2.58;0.80;;;16.70;69.40;;;;;;5048887;28;20060;-11
2023/01/09 07:48:57;;;;;;;1.10;1.00;;;16.70;69.40;;;;;;5048628;28;20071;-11
2023/01/09 07:51:22;;;;;;;0.75;0.65;;;16.70;70.40;;;;;;5045617;28;20087;-11
2023/01/09 07:53:48;;;;;;;0.82;0.70;;;16.70;69.20;;;;;;5041227;28;20037;-12
2023/01/09 07:56:14;;;;;;;0.80;0.70;;;16.70;69.50;;;;;;5043537;28;20033;-11
2023/01/09 07:58:39;;;;;;;0.70;0.70;;;16.80;69.80;;;;;;5043628;28;20052;-10
2023/01/09 08:01:05;;;;;;;1.77;0.85;;;16.70;69.60;;;;;;5043533;28;20155;-10
2023/01/09 08:03:32;;;;;;;1.33;0.93;;;16.60;69.60;;;;;;5047040;28;20041;-11
2023/01/09 08:05:58;;;;;;;1.25;0.80;;;16.60;70.10;;;;;;5048397;28;20110;-12
2023/01/09 08:08:24;;;;;;;0.80;0.80;;;16.60;70.40;;;;;;5046429;28;20124;-10
2023/01/09 08:10:49;;;;;;;1.25;1.00;;;16.60;70.40;;;;;;5047969;28;20120;-11
2023/01/09 08:13:15;;;;;;;1.98;1.00;;;16.50;70.50;;;;;;5048876;28;20515;-11
2023/01/09 08:15:40;;;;;;;1.40;1.00;;;16.50;70.60;;;;;;5047163;28;20045;-11
2023/01/09 08:18:06;;;;;;;1.80;0.77;;;16.50;71.40;;;;;;5047431;28;20033;-10
2023/01/09 08:20:31;;;;;;;2.25;0.80;;;16.50;70.50;;;;;;5046772;28;20486;-11
2023/01/09 08:22:57;;;;;;;1.27;0.70;;;16.60;70.50;;;;;;5034928;28;20053;-11
2023/01/09 08:25:22;;;;;;;0.70;0.70;;;16.50;70.70;;;;;;5046625;28;20055;-11
2023/01/09 08:27:48;;;;;;;1.58;0.60;;;16.50;70.50;;;;;;5047300;28;20049;-11
2023/01/09 08:30:14;;;;;;;1.00;0.90;;;16.60;71.10;;;;;;5047837;28;20045;-11
2023/01/09 08:32:40;;;;;;;1.50;0.77;;;16.50;70.30;;;;;;5046748;28;20091;-11
2023/01/09 08:35:06;;;;;;;1.52;0.82;;;16.50;70.50;;;;;;5048086;28;20502;-14
2023/01/09 08:37:32;;;;;;;1.98;0.75;;;16.40;70.50;;;;;;5044768;28;20052;-10
2023/01/09 08:39:57;;;;;;;1.67;0.90;;;16.50;70.90;;;;;;5047786;28;20042;-24
2023/01/09 08:47:53;;;;;;;1.00;0.60;;;16.50;70.60;;;;;;5077281;28;20119;-11
2023/01/09 08:50:19;;;;;;;0.60;0.60;;;16.50;70.80;;;;;;5080204;28;20107;-10
2023/01/09 08:52:44;;;;;;;0.85;0.65;;;16.50;70.80;;;;;;5082510;28;20114;-10
2023/01/09 08:55:10;;;;;;;1.17;0.60;;;16.50;70.30;;;;;;5080800;28;20044;-11
2023/01/09 08:57:35;;;;;;;1.15;0.60;;;16.50;70.70;;;;;;5080601;28;20046;-10
2023/01/09 09:00:01;;;;;;;0.45;0.45;;;16.50;70.50;;;;;;5082062;28;20059;-10
2023/01/09 09:02:27;;;;;;;0.70;0.70;;;16.50;70.60;;;;;;5078795;28;20084;-19
2023/01/09 09:04:52;;;;;;;0.80;0.80;;;16.40;70.40;;;;;;5083632;28;20039;-10
2023/01/09 09:07:25;;;;;;;1.05;0.85;;;16.50;70.50;;;;;;5080305;28;20564;-25
2023/01/09 09:09:53;;;;;;;4.18;0.95;;;16.50;70.50;;;;;;5078795;28;20037;-11
2023/01/09 09:12:19;;;;;;;0.80;0.80;;;16.40;70.40;;;;;;5081240;28;20036;-10
2023/01/09 09:17:43;;;;;;;1.08;1.00;;;16.40;70.40;;;;;;5054124;28;20044;-10
2023/01/09 09:20:10;;;;;;;1.25;0.57;;;16.50;70.10;;;;;;5080685;28;20048;-10
2023/01/09 09:22:36;;;;;;;1.05;0.70;;;16.40;70.00;;;;;;5071634;28;20037;-10
2023/01/09 09:25:03;;;;;;;0.47;0.47;;;16.40;70.10;;;;;;5067814;28;20385;-10
2023/01/09 09:27:32;;;;;;;0.40;0.40;;;16.50;69.90;;;;;;5079662;28;20044;-10
2023/01/09 09:29:57;;;;;;;0.98;0.75;;;16.50;69.80;;;;;;5079112;28;20053;-11
2023/01/09 09:32:23;;;;;;;1.73;0.57;;;16.70;69.50;;;;;;5078935;28;20032;-11
2023/01/09 09:34:48;;;;;;;0.63;0.50;;;16.70;69.10;;;;;;5077451;28;20047;-14
2023/01/09 09:37:14;;;;;;;1.55;0.60;;;16.70;69.00;;;;;;5081033;28;20524;-11
2023/01/09 09:39:40;;;;;;;0.95;0.63;;;16.70;69.00;;;;;;5075426;28;20048;-13
2023/01/09 09:44:59;;;;;;;0.50;0.50;;;16.70;69.00;;;;;;5068912;28;20071;-10
2023/01/09 09:47:42;;;;;;;0.93;0.70;;;16.70;69.20;;;;;;5042390;28;20048;-11
2023/01/09 09:50:34;;;;;;;0.60;0.60;;;16.70;69.20;;;;;;5058540;28;20051;-10
2023/01/09 09:53:09;;;;;;;0.50;0.50;;;16.70;69.20;;;;;;5043362;28;20093;-10
2023/01/09 09:55:38;;;;;;;0.40;0.38;;;16.70;69.40;;;;;;5058145;28;20037;-11
2023/01/09 09:58:20;;;;;;;0.47;0.47;;;16.70;69.40;;;;;;5041529;28;20064;-10
2023/01/09 10:00:46;;;;;;;0.73;0.73;;;16.80;69.30;;;;;;5042870;28;20045;-10
2023/01/09 10:03:23;;;;;;;1.08;0.47;;;16.80;69.00;;;;;;5059701;28;20087;-10
2023/01/09 10:05:49;;;;;;;0.47;0.40;;;16.90;68.80;;;;;;5041169;28;20057;-10
2023/01/09 10:08:26;;;;;;;0.88;0.70;;;16.80;69.50;;;;;;5042527;28;20094;-10
2023/01/09 10:10:52;;;;;;;0.60;0.38;;;16.80;68.80;;;;;;5044138;28;20051;-12
2023/01/09 10:16:21;;;;;;;0.60;0.57;;;16.70;69.10;;;;;;5045225;28;20802;-13
2023/01/09 10:19:03;;;;;;;0.47;0.45;;;16.70;69.10;;;;;;5056877;28;20079;-10
2023/01/09 10:21:41;;;;;;;0.40;0.30;;;16.70;69.20;;;;;;5040413;28;20044;-12
2023/01/09 10:24:15;;;;;;;0.60;0.40;;;16.70;69.00;;;;;;5055484;28;20048;-10
2023/01/09 10:26:46;;;;;;;0.40;0.40;;;16.80;68.90;;;;;;5059556;28;20041;-11
2023/01/09 10:29:36;;;;;;;0.88;0.60;;;16.90;68.60;;;;;;5040900;28;20110;-10
2023/01/09 10:32:40;;;;;;;0.40;0.30;;;17.00;68.10;;;;;;5039283;28;20104;-10
2023/01/09 10:35:45;;;;;;;0.40;0.23;;;17.00;68.20;;;;;;4966804;28;20473;-21
2023/01/09 10:38:11;;;;;;;0.70;0.30;;;17.20;67.60;;;;;;4962534;28;20047;-11
2023/01/09 10:40:43;;;;;;;0.52;0.30;;;17.10;67.60;;;;;;4967005;28;20134;-10
2023/01/09 10:43:36;;;;;;;0.50;0.40;;;17.20;67.50;;;;;;4967670;28;20042;-11
2023/01/09 10:46:04;;;;;;;1.40;0.50;;;17.20;67.50;;;;;;4970536;28;20112;-13
2023/01/09 10:48:41;;;;;;;1.58;0.60;;;17.10;67.60;;;;;;4986182;28;20393;-10
2023/01/09 10:51:23;;;;;;;0.40;0.35;;;17.10;67.60;;;;;;4987171;28;20136;-10
2023/01/09 10:53:50;;;;;;;0.50;0.50;;;17.20;67.50;;;;;;4986492;28;20050;-13
2023/01/09 10:56:27;;;;;;;0.30;0.30;;;17.20;67.30;;;;;;4986846;28;20674;-11
2023/01/09 10:58:53;;;;;;;0.25;0.25;;;17.30;67.00;;;;;;4983324;28;20057;-10
2023/01/09 11:01:25;;;;;;;0.35;0.30;;;17.40;66.90;;;;;;4982986;28;20507;-10
2023/01/09 11:03:51;;;;;;;0.50;0.38;;;17.30;67.10;;;;;;4969936;28;20976;-15
2023/01/09 11:06:22;;;;;;;0.30;0.30;;;17.30;67.00;;;;;;5046600;28;20040;-10
2023/01/09 11:08:49;;;;;;;0.43;0.40;;;17.30;66.90;;;;;;5062369;28;20071;-11
2023/01/09 11:11:34;;;;;;;0.50;0.32;;;17.30;66.70;;;;;;5059366;28;20033;-10
2023/01/09 11:14:04;;;;;;;0.90;0.40;;;17.30;67.10;;;;;;5079337;28;20044;-10
2023/01/09 11:16:29;;;;;;;0.73;0.40;;;17.30;66.80;;;;;;5078018;28;20036;-10
2023/01/09 11:18:57;;;;;;;0.47;0.20;;;17.40;66.70;;;;;;5078684;28;20417;-10
2023/01/09 11:21:38;;;;;;;0.57;0.30;;;17.30;66.70;;;;;;5059153;28;20074;-11
2023/01/09 11:24:15;;;;;;;0.40;0.40;;;17.20;67.00;;;;;;5079655;28;20051;-10
2023/01/09 11:26:41;;;;;;;0.77;0.47;;;17.40;66.60;;;;;;5074037;28;20040;-10
2023/01/09 11:29:12;;;;;;;0.45;0.30;;;17.40;66.50;;;;;;5065261;28;20043;-11
2023/01/09 11:31:42;;;;;;;0.30;0.25;;;17.50;66.40;;;;;;5060555;28;20720;-10
2023/01/09 11:34:18;;;;;;;0.20;0.20;;;17.50;66.20;;;;;;5047154;28;20056;-10
2023/01/09 11:36:44;;;;;;;0.38;0.20;;;17.50;66.30;;;;;;5041872;28;20049;-13
2023/01/09 11:39:23;;;;;;;0.68;0.30;;;17.40;66.50;;;;;;5078104;28;20039;-11
2023/01/09 11:42:00;;;;;;;0.38;0.38;;;17.30;66.70;;;;;;5040219;28;20058;-11
2023/01/09 11:44:26;;;;;;;2.05;0.30;;;17.30;66.90;;;;;;5050683;28;20048;-11
2023/01/09 11:46:51;;;;;;;0.30;0.30;;;17.30;67.00;;;;;;5053461;28;20130;-10
2023/01/09 11:49:28;;;;;;;0.60;0.30;;;17.30;67.00;;;;;;5055411;28;20521;-12
2023/01/09 11:52:18;;;;;;;0.50;0.50;;;17.30;67.00;;;;;;5056706;28;20040;-16
2023/01/09 11:54:56;;;;;;;0.45;0.30;;;17.30;66.80;;;;;;5051111;28;20052;-11
2023/01/09 11:57:22;;;;;;;0.95;0.30;;;17.30;66.90;;;;;;5051751;28;20150;-10
2023/01/09 11:59:48;;;;;;;1.25;0.40;;;17.30;67.10;;;;;;5025564;28;20494;-10
2023/01/09 12:02:35;;;;;;;1.17;0.40;;;17.30;67.00;;;;;;5035276;28;20044;-15
2023/01/09 12:05:08;;;;;;;0.40;0.25;;;17.30;67.00;;;;;;5027160;28;20052;-12
2023/01/09 12:08:08;;;;;;;0.20;0.20;;;17.30;67.10;;;;;;5030676;28;20045;-10
2023/01/09 12:10:42;;;;;;;0.30;0.30;;;17.30;67.10;;;;;;5035655;28;20069;-10
2023/01/09 12:13:36;;;;;;;0.40;0.40;;;17.40;66.80;;;;;;5052060;28;20452;-10
2023/01/09 12:16:26;;;;;;;1.00;0.60;;;17.30;66.90;;;;;;5051182;28;20024;-11
2023/01/09 12:19:03;;;;;;;0.35;0.30;;;17.30;67.30;;;;;;5057528;28;20030;-10
2023/01/09 12:22:07;;;;;;;1.15;0.40;;;17.30;67.10;;;;;;5052093;28;20112;-10
2023/01/09 12:24:40;;;;;;;0.40;0.40;;;17.30;67.00;;;;;;5036154;28;20048;-10
2023/01/09 12:27:21;;;;;;;1.00;0.30;;;17.30;67.00;;;;;;5052020;28;20041;-10
2023/01/09 12:29:52;;;;;;;0.57;0.30;;;17.40;66.90;;;;;;5035137;28;20040;-14
2023/01/09 12:32:27;;;;;;;0.68;0.40;;;17.30;67.10;;;;;;5052653;28;20120;-18
2023/01/09 12:35:11;;;;;;;0.55;0.20;;;17.30;67.30;;;;;;5028847;28;20116;-14
2023/01/09 12:37:46;;;;;;;1.02;0.40;;;17.20;67.50;;;;;;5047618;28;20053;-10
2023/01/09 12:40:11;;;;;;;0.63;0.30;;;17.10;67.80;;;;;;5034378;28;20044;-9
2023/01/09 12:42:46;;;;;;;0.73;0.40;;;17.00;68.00;;;;;;5056898;28;20057;-10
2023/01/09 12:45:17;;;;;;;;;;;17.10;67.70;;;;;;5052683;28;20120;-11
2023/01/09 12:47:47;;;;;;;0.30;0.30;;;17.20;67.60;;;;;;5044041;28;20003;-17
2023/01/09 12:50:31;;;;;;;0.30;0.20;;;17.20;67.70;;;;;;5039496;28;20063;-10
2023/01/09 12:53:09;;;;;;;0.60;0.40;;;17.10;67.60;;;;;;5058507;28;20060;-10
2023/01/09 12:55:37;;;;;;;0.50;0.30;;;17.20;67.60;;;;;;5054709;28;20049;-11
2023/01/09 12:58:25;;;;;;;0.75;0.45;;;17.20;67.50;;;;;;5030510;28;20055;-10
2023/01/09 13:00:50;;;;;;;0.20;0.20;;;17.00;67.60;;;;;;5039456;28;20520;-11
2023/01/09 13:03:16;;;;;;;0.40;0.20;;;17.00;67.90;;;;;;5042666;28;20032;-14
2023/01/09 13:05:49;;;;;;;0.43;0.30;;;17.10;67.70;;;;;;5062365;28;20556;-10
2023/01/09 13:08:19;;;;;;;0.40;0.30;;;17.30;67.20;;;;;;5042988;28;20102;-14
2023/01/09 13:10:49;;;;;;;0.47;0.20;;;17.30;67.90;;;;;;5060822;28;20544;-10
2023/01/09 13:13:19;;;;;;;0.70;0.38;;;17.20;67.20;;;;;;5056446;28;20455;-10
2023/01/09 13:15:47;;;;;;;0.75;0.35;;;17.20;67.30;;;;;;5040334;28;20052;-10
2023/01/09 13:18:33;;;;;;;0.20;0.20;;;17.10;67.30;;;;;;5042812;28;20598;-9